Weather at Montreal / Pierre Elliott Trudeau International Airport

Public forecast

Using degrees Celsius for public forecast. Weather courtesy of forecast.io.

Current aviation weather report (METAR) for Montreal / Pierre Elliott Trudeau International Airport

Retrieved 2021/10/23 04:00 UTC (44 minutes ago):

CYUL 230400Z 32004KT 15SM BKN038 05/01 A3000 RMK SC7 SLP162

Aviation forecast (TAF) for Montreal / Pierre Elliott Trudeau International Airport

Retrieved 2021-10-23 03:45 UTC (59 minutes ago):

TAF CYUL 230239Z 2303/2324 30007KT P6SM BKN030 BECMG 2303/2305 01006KT FM230900 34006KT P6SM SCT030 BKN160 RMK NXT FCST BY 230600Z